Terminal Aerodrome Forecast
Issued by NWS Brownsville, TX

Home | Current Version | Previous Version | Text Only | Print | Product List | Glossary On
Versions: 1 2 3 4 5 6 7 8 9 10 11 12 13
000
FTUS44 KBRO 241725
TAFMFE
TAF
KMFE 241725Z 2418/2518 14018G28KT P6SM FEW060
     FM250200 14014G20KT P6SM FEW250
     FM250500 16007KT P6SM SCT020 BKN250
     FM251500 15013KT P6SM BKN100=

USA.gov is the U.S. government's official web portal to all federal, state and local government web resources and services.